createdAt,value
2019-01-31T00:01:35.489Z,83.27
2019-01-31T00:05:10.065Z,83.36
2019-01-31T00:08:57.016Z,83.47
2019-01-31T00:12:23.503Z,83.49
2019-01-31T00:15:22.143Z,83.55
2019-01-31T00:18:24.047Z,83.62
2019-01-31T00:21:43.190Z,83.68
2019-01-31T00:24:41.805Z,83.61
2019-01-31T00:27:43.006Z,83.55
2019-01-31T00:31:03.699Z,83.53
2019-01-31T00:34:30.183Z,83.36
2019-01-31T00:38:01.523Z,83.15
2019-01-31T00:41:25.699Z,83.14
2019-01-31T00:44:53.286Z,83.13
2019-01-31T00:48:23.501Z,83.35
2019-01-31T00:51:39.353Z,83.50
2019-01-31T00:55:21.037Z,83.36
2019-01-31T00:58:48.447Z,83.25
2019-01-31T01:02:19.072Z,82.90
2019-01-31T01:05:53.771Z,82.74
2019-01-31T01:09:25.193Z,82.48
2019-01-31T01:13:01.417Z,82.17
2019-01-31T01:15:59.678Z,82.03
2019-01-31T01:19:38.625Z,82.44
2019-01-31T01:22:36.085Z,82.58
2019-01-31T01:26:16.583Z,82.64
2019-01-31T01:29:20.638Z,82.86
2019-01-31T01:32:56.002Z,82.59
2019-01-31T01:36:36.719Z,82.55
2019-01-31T01:40:08.700Z,82.51
2019-01-31T01:43:49.041Z,82.12
2019-01-31T01:47:16.674Z,81.75
2019-01-31T01:50:14.628Z,81.63
2019-01-31T01:53:49.450Z,81.63
2019-01-31T01:57:34.269Z,81.73
2019-01-31T02:00:50.256Z,82.02
2019-01-31T02:03:55.137Z,81.92
2019-01-31T02:07:35.670Z,81.53
2019-01-31T02:11:01.576Z,81.29
2019-01-31T02:14:20.378Z,81.32
2019-01-31T02:17:23.587Z,81.02
2019-01-31T02:20:45.951Z,80.56
2019-01-31T02:24:08.787Z,80.50
2019-01-31T02:27:34.833Z,80.29
2019-01-31T02:31:12.520Z,80.55
2019-01-31T02:35:04.768Z,80.68
2019-01-31T02:38:51.624Z,80.65
2019-01-31T02:42:33.128Z,80.30
2019-01-31T02:46:24.304Z,80.05
2019-01-31T02:50:05.077Z,80.20
2019-01-31T02:53:20.104Z,80.01
2019-01-31T02:56:58.863Z,79.94
2019-01-31T03:00:48.564Z,79.70
2019-01-31T03:04:15.427Z,79.56
2019-01-31T03:07:38.613Z,79.34
2019-01-31T03:10:58.311Z,79.30
2019-01-31T03:14:18.476Z,78.97
2019-01-31T03:17:32.406Z,78.73
2019-01-31T03:20:29.694Z,78.69
2019-01-31T03:24:09.766Z,78.51
2019-01-31T03:27:32.852Z,78.33
2019-01-31T03:30:58.881Z,77.88
2019-01-31T03:34:20.990Z,78.17
2019-01-31T03:37:45.420Z,77.86
2019-01-31T03:41:20.675Z,77.73
2019-01-31T03:44:32.707Z,77.56
2019-01-31T03:48:03.304Z,77.25
2019-01-31T03:51:47.016Z,76.62
2019-01-31T03:55:17.172Z,76.49
2019-01-31T03:58:36.748Z,76.60
2019-01-31T04:02:13.947Z,76.83
2019-01-31T04:05:19.947Z,76.38
2019-01-31T04:07:51.754Z,76.25
2019-01-31T04:10:23.577Z,76.47
2019-01-31T04:12:55.426Z,76.73
2019-01-31T04:15:27.300Z,76.95
2019-01-31T04:17:59.095Z,77.15
2019-01-31T04:20:30.943Z,77.19
2019-01-31T04:23:02.851Z,77.19
2019-01-31T04:25:34.816Z,76.89
2019-01-31T04:28:07.495Z,76.91
2019-01-31T04:31:42.365Z,76.77
2019-01-31T04:34:14.251Z,76.83
2019-01-31T04:36:46.117Z,77.08
2019-01-31T04:39:17.992Z,77.37
2019-01-31T04:41:50.129Z,77.32
2019-01-31T04:44:22.177Z,77.56
2019-01-31T04:46:54.411Z,77.40
2019-01-31T04:49:26.227Z,77.17
2019-01-31T04:51:58.096Z,77.46
2019-01-31T04:54:29.929Z,77.57
2019-01-31T04:57:02.075Z,77.62
2019-01-31T04:59:34.002Z,77.86
2019-01-31T05:02:06.050Z,78.14
2019-01-31T05:04:37.863Z,78.14
2019-01-31T05:07:12.491Z,78.03
2019-01-31T05:09:44.427Z,78.13
2019-01-31T05:12:16.328Z,78.17
2019-01-31T05:14:48.412Z,78.00
2019-01-31T05:17:20.238Z,77.64
2019-01-31T05:19:52.652Z,77.55
2019-01-31T05:22:24.691Z,77.50
2019-01-31T05:24:56.582Z,77.48
2019-01-31T05:27:30.070Z,77.48
2019-01-31T05:30:01.860Z,77.42
2019-01-31T05:32:33.675Z,77.72
2019-01-31T05:35:06.612Z,77.44
2019-01-31T05:37:38.481Z,77.38
2019-01-31T05:40:13.017Z,77.85
2019-01-31T05:42:44.783Z,78.07
2019-01-31T05:45:17.496Z,78.10
2019-01-31T05:47:49.340Z,77.86
2019-01-31T05:50:21.249Z,77.84
2019-01-31T05:52:53.059Z,78.00
2019-01-31T05:55:24.980Z,78.00
2019-01-31T05:57:56.803Z,78.34
2019-01-31T06:00:32.099Z,78.17
2019-01-31T06:03:03.944Z,78.19
2019-01-31T06:05:35.780Z,78.19
2019-01-31T06:08:07.683Z,78.19
2019-01-31T06:10:39.424Z,78.21
2019-01-31T06:13:11.464Z,78.26
2019-01-31T06:15:43.246Z,78.05
2019-01-31T06:18:15.132Z,78.01
2019-01-31T06:20:46.894Z,77.90
2019-01-31T06:23:18.769Z,77.78
2019-01-31T06:25:50.563Z,77.62
2019-01-31T06:28:22.390Z,77.93
2019-01-31T06:30:54.337Z,77.94
2019-01-31T06:33:28.444Z,77.81
2019-01-31T06:36:00.072Z,77.95
2019-01-31T06:38:31.862Z,78.07
2019-01-31T06:41:03.906Z,78.14
2019-01-31T06:43:35.687Z,78.15
2019-01-31T06:46:07.536Z,78.10
2019-01-31T06:48:39.492Z,78.07
2019-01-31T06:51:11.387Z,77.61
2019-01-31T06:53:43.246Z,77.82
2019-01-31T06:56:15.314Z,77.63
2019-01-31T06:58:47.278Z,77.38
2019-01-31T07:01:19.250Z,77.29
2019-01-31T07:03:51.074Z,77.01
2019-01-31T07:06:23.018Z,76.78
2019-01-31T07:08:54.818Z,76.86
2019-01-31T07:11:30.218Z,76.80
2019-01-31T07:14:00.236Z,76.71
2019-01-31T07:16:32.166Z,76.46
2019-01-31T07:19:04.010Z,76.14
2019-01-31T07:21:35.936Z,76.09
2019-01-31T07:24:07.791Z,76.29
2019-01-31T07:26:41.567Z,76.97
2019-01-31T07:29:13.094Z,77.03
2019-01-31T07:31:44.899Z,77.10
2019-01-31T07:34:16.726Z,77.33
2019-01-31T07:36:48.659Z,77.56
2019-01-31T07:39:20.458Z,77.32
2019-01-31T07:41:52.270Z,76.84
2019-01-31T07:44:24.110Z,76.52
2019-01-31T07:46:57.129Z,76.22
2019-01-31T07:49:29.983Z,76.14
2019-01-31T07:52:01.868Z,75.90
2019-01-31T07:54:33.658Z,75.85
2019-01-31T07:57:06.089Z,75.39
2019-01-31T07:59:38.447Z,74.65
2019-01-31T08:02:10.507Z,74.21
2019-01-31T08:04:44.577Z,74.00
2019-01-31T08:07:16.698Z,73.86
2019-01-31T08:09:49.002Z,73.52
2019-01-31T08:12:21.055Z,73.42
2019-01-31T08:14:53.135Z,73.24
2019-01-31T08:17:25.302Z,72.96
2019-01-31T08:19:57.299Z,72.82
2019-01-31T08:22:29.486Z,72.44
2019-01-31T08:25:01.550Z,72.22
2019-01-31T08:27:33.905Z,72.21
2019-01-31T08:30:07.797Z,71.86
2019-01-31T08:32:40.112Z,71.86
2019-01-31T08:35:12.357Z,71.45
2019-01-31T08:37:44.527Z,70.30
2019-01-31T08:40:16.376Z,70.10
2019-01-31T08:42:48.809Z,69.35
2019-01-31T08:45:21.367Z,69.61
2019-01-31T08:47:53.803Z,69.20
2019-01-31T08:50:27.627Z,68.82
2019-01-31T08:52:59.996Z,68.42
2019-01-31T08:55:31.887Z,68.75
2019-01-31T08:58:03.890Z,67.71
2019-01-31T09:00:35.769Z,66.89
2019-01-31T09:03:09.401Z,67.17
2019-01-31T09:05:41.361Z,67.26
2019-01-31T09:08:13.615Z,67.00
2019-01-31T09:10:45.683Z,66.43
2019-01-31T09:13:17.629Z,66.63
2019-01-31T09:15:49.593Z,66.64
2019-01-31T09:18:21.549Z,66.08
2019-01-31T09:21:19.046Z,65.72
2019-01-31T09:25:02.222Z,65.86
2019-01-31T09:28:06.663Z,65.55
2019-01-31T09:31:47.256Z,65.33
2019-01-31T09:34:51.155Z,64.58
2019-01-31T09:38:40.879Z,63.69
2019-01-31T09:42:26.668Z,63.65
2019-01-31T09:45:45.129Z,62.79
2019-01-31T09:49:09.857Z,62.60
2019-01-31T09:52:17.613Z,61.29
2019-01-31T09:55:53.843Z,61.86
2019-01-31T09:59:20.339Z,61.33
2019-01-31T10:02:49.421Z,60.12
2019-01-31T10:06:57.116Z,59.95
2019-01-31T10:10:29.832Z,60.66
2019-01-31T10:13:49.604Z,60.34
2019-01-31T10:17:09.192Z,59.88
2019-01-31T10:20:52.828Z,60.58
2019-01-31T10:24:11.693Z,61.37
2019-01-31T10:27:34.598Z,61.55
2019-01-31T10:31:01.076Z,62.41
2019-01-31T10:34:18.188Z,62.65
2019-01-31T10:37:12.696Z,63.15
2019-01-31T10:40:43.833Z,61.90
2019-01-31T10:44:13.512Z,62.00
2019-01-31T10:47:13.502Z,62.56
2019-01-31T10:50:27.483Z,62.25
2019-01-31T10:53:43.670Z,61.63
2019-01-31T10:57:30.343Z,62.01
2019-01-31T11:00:44.924Z,61.94
2019-01-31T11:03:59.946Z,62.04
2019-01-31T11:07:31.076Z,62.42
2019-01-31T11:11:11.504Z,61.60
2019-01-31T11:15:01.326Z,61.36
2019-01-31T11:18:11.786Z,62.07
2019-01-31T11:21:06.172Z,61.44
2019-01-31T11:24:31.738Z,60.44
2019-01-31T11:28:00.629Z,58.55
2019-01-31T11:31:15.220Z,58.96
2019-01-31T11:34:50.960Z,58.73
2019-01-31T11:38:03.524Z,58.10
2019-01-31T11:41:16.562Z,56.39
2019-01-31T11:45:09.345Z,56.92
2019-01-31T11:47:59.573Z,55.63
2019-01-31T11:51:35.982Z,54.85
2019-01-31T11:55:07.040Z,55.62
2019-01-31T11:58:24.244Z,55.60
2019-01-31T12:00:59.464Z,57.32
2019-01-31T12:03:31.355Z,56.77
2019-01-31T12:06:03.982Z,56.97
2019-01-31T12:08:35.820Z,57.20
2019-01-31T12:11:08.757Z,57.07
2019-01-31T12:13:40.511Z,58.76
2019-01-31T12:16:12.579Z,57.62
2019-01-31T12:18:44.579Z,57.62
2019-01-31T12:21:17.845Z,56.43
2019-01-31T12:23:53.000Z,57.33
2019-01-31T12:26:26.690Z,56.38
2019-01-31T12:28:58.459Z,55.65
2019-01-31T12:31:30.279Z,54.90
2019-01-31T12:34:02.241Z,54.45
2019-01-31T12:36:34.039Z,53.62
2019-01-31T12:39:10.165Z,53.34
2019-01-31T12:41:42.068Z,53.19
2019-01-31T12:44:13.923Z,51.80
2019-01-31T12:46:45.699Z,53.41
2019-01-31T12:49:17.688Z,52.39
2019-01-31T12:51:52.391Z,53.23
2019-01-31T12:54:24.419Z,53.11
2019-01-31T12:56:56.345Z,53.34
2019-01-31T12:59:30.288Z,52.34
2019-01-31T13:02:02.595Z,51.82
2019-01-31T13:04:34.580Z,52.36
2019-01-31T13:07:08.319Z,52.42
2019-01-31T13:09:41.280Z,52.61
2019-01-31T13:12:14.166Z,53.19
2019-01-31T13:14:46.265Z,53.38
2019-01-31T13:17:20.572Z,53.96
2019-01-31T13:20:00.416Z,54.74
2019-01-31T13:22:32.895Z,54.26
2019-01-31T13:25:07.389Z,55.05
2019-01-31T13:27:39.343Z,54.25
2019-01-31T13:30:17.391Z,54.97
2019-01-31T13:32:49.545Z,53.57
2019-01-31T13:35:21.272Z,53.26
2019-01-31T13:37:54.211Z,52.63
2019-01-31T13:40:27.822Z,54.16
2019-01-31T13:42:59.775Z,54.02
2019-01-31T13:45:35.100Z,55.00
2019-01-31T13:48:13.731Z,54.13
2019-01-31T13:50:45.598Z,54.29
2019-01-31T13:53:17.455Z,53.92
2019-01-31T13:55:49.251Z,53.96
2019-01-31T13:58:21.959Z,54.20
2019-01-31T14:00:53.750Z,54.27
2019-01-31T14:03:25.619Z,54.53
2019-01-31T14:05:57.447Z,54.86
2019-01-31T14:08:29.191Z,55.50
2019-01-31T14:11:00.998Z,55.49
2019-01-31T14:13:33.790Z,56.07
2019-01-31T14:16:05.751Z,55.49
2019-01-31T14:18:37.606Z,55.85
2019-01-31T14:21:09.434Z,55.52
2019-01-31T14:23:41.251Z,55.79
2019-01-31T14:26:14.304Z,55.81
2019-01-31T14:28:46.060Z,56.15
2019-01-31T14:31:17.816Z,56.18
2019-01-31T14:33:49.650Z,56.24
2019-01-31T14:36:21.642Z,56.76
2019-01-31T14:38:53.476Z,57.31
2019-01-31T14:41:25.273Z,57.65
2019-01-31T14:43:57.227Z,57.98
2019-01-31T14:46:29.001Z,58.21
2019-01-31T14:49:02.370Z,58.62
2019-01-31T14:51:34.362Z,58.76
2019-01-31T14:54:06.304Z,59.06
2019-01-31T14:56:38.155Z,59.50
2019-01-31T14:59:10.002Z,59.94
2019-01-31T15:01:41.856Z,60.74
2019-01-31T15:04:13.837Z,61.09
2019-01-31T15:06:45.649Z,61.54
2019-01-31T15:09:17.652Z,61.59
2019-01-31T15:11:49.554Z,61.98
2019-01-31T15:14:31.486Z,61.97
2019-01-31T15:16:54.966Z,62.27
2019-01-31T15:19:26.826Z,62.71
2019-01-31T15:21:58.731Z,62.96
2019-01-31T15:24:30.600Z,62.95
2019-01-31T15:27:02.448Z,62.79
2019-01-31T15:29:34.248Z,63.20
2019-01-31T15:32:06.222Z,63.68
2019-01-31T15:34:38.066Z,64.06
2019-01-31T15:37:09.992Z,64.14
2019-01-31T15:39:41.884Z,64.80
2019-01-31T15:42:13.930Z,64.92
2019-01-31T15:44:45.975Z,64.92
2019-01-31T15:47:18.006Z,64.88
2019-01-31T15:49:49.974Z,64.97
2019-01-31T15:52:21.858Z,65.43
2019-01-31T15:54:53.754Z,65.82
2019-01-31T15:57:26.114Z,66.25
2019-01-31T15:59:58.550Z,66.63
2019-01-31T16:02:30.327Z,66.94
2019-01-31T16:05:02.361Z,67.55
2019-01-31T16:07:34.357Z,67.62
2019-01-31T16:10:06.821Z,67.94
2019-01-31T16:12:39.502Z,68.38
2019-01-31T16:15:12.845Z,68.60
2019-01-31T16:17:45.007Z,69.28
2019-01-31T16:20:17.286Z,69.70
2019-01-31T16:22:49.156Z,70.15
2019-01-31T16:25:21.563Z,70.39
2019-01-31T16:27:53.422Z,70.13
2019-01-31T16:30:26.401Z,70.15
2019-01-31T16:32:58.333Z,70.86
2019-01-31T16:35:30.360Z,70.98
2019-01-31T16:38:02.713Z,72.40
2019-01-31T16:40:34.693Z,72.29
2019-01-31T16:43:10.820Z,72.04
2019-01-31T16:45:46.063Z,72.48
2019-01-31T16:48:18.165Z,72.79
2019-01-31T16:50:51.258Z,72.99
2019-01-31T16:53:23.652Z,73.65
2019-01-31T16:55:56.645Z,74.20
2019-01-31T16:58:29.504Z,74.42
2019-01-31T17:01:03.235Z,74.95
2019-01-31T17:03:35.897Z,75.20
2019-01-31T17:06:07.907Z,75.50
2019-01-31T17:08:39.744Z,75.92
2019-01-31T17:11:11.985Z,75.71
2019-01-31T17:13:43.893Z,75.26
2019-01-31T17:16:15.685Z,75.32
2019-01-31T17:18:47.610Z,75.27
2019-01-31T17:21:20.965Z,75.21
2019-01-31T17:23:55.038Z,75.25
2019-01-31T17:26:27.069Z,75.37
2019-01-31T17:29:02.494Z,75.34
2019-01-31T17:31:34.636Z,75.21
2019-01-31T17:34:07.264Z,75.19
2019-01-31T17:36:41.243Z,74.36
2019-01-31T17:39:15.178Z,74.11
2019-01-31T17:41:47.193Z,74.44
2019-01-31T17:44:19.041Z,74.96
2019-01-31T17:46:51.033Z,75.30
2019-01-31T17:49:23.043Z,75.59
2019-01-31T17:51:58.355Z,75.81
2019-01-31T17:54:31.135Z,75.97
2019-01-31T17:58:05.843Z,76.09
2019-01-31T18:00:57.865Z,76.26
2019-01-31T18:03:30.222Z,76.43
2019-01-31T18:06:05.238Z,76.57
2019-01-31T18:08:41.506Z,76.66
2019-01-31T18:11:13.489Z,76.74
2019-01-31T18:13:47.691Z,76.89
2019-01-31T18:16:19.654Z,77.21
2019-01-31T18:18:51.746Z,77.13
2019-01-31T18:21:30.213Z,77.15
2019-01-31T18:24:08.901Z,77.42
2019-01-31T18:26:44.150Z,77.07
2019-01-31T18:29:16.195Z,77.22
2019-01-31T18:31:48.175Z,77.58
2019-01-31T18:34:23.059Z,77.63
2019-01-31T18:36:54.993Z,77.96
2019-01-31T18:39:27.750Z,78.19
2019-01-31T18:42:00.834Z,77.93
2019-01-31T18:44:32.710Z,77.89
2019-01-31T18:47:04.751Z,78.11
2019-01-31T18:49:36.653Z,78.69
2019-01-31T18:52:18.614Z,79.36
2019-01-31T18:54:48.616Z,79.52
2019-01-31T18:57:22.408Z,79.74
2019-01-31T18:59:54.336Z,80.02
2019-01-31T19:07:00.497Z,80.25
2019-01-31T19:10:04.881Z,80.25
2019-01-31T19:12:58.585Z,80.78
2019-01-31T19:24:36.222Z,81.05
2019-01-31T19:27:21.757Z,81.26
2019-01-31T19:29:54.150Z,81.44
2019-01-31T19:32:28.531Z,81.43
2019-01-31T19:35:02.960Z,81.40
2019-01-31T19:37:35.834Z,81.45
2019-01-31T19:40:09.492Z,81.40
2019-01-31T19:42:41.611Z,81.44
2019-01-31T19:45:22.260Z,81.40
2019-01-31T19:47:56.479Z,81.39
2019-01-31T19:50:32.199Z,81.09
2019-01-31T19:53:06.284Z,81.00
2019-01-31T19:55:40.154Z,80.61
2019-01-31T19:58:12.137Z,80.54
2019-01-31T20:00:44.343Z,80.55
2019-01-31T20:03:19.580Z,80.58
2019-01-31T20:05:54.387Z,80.61
2019-01-31T20:08:26.690Z,80.83
2019-01-31T20:10:58.834Z,80.96
2019-01-31T20:13:30.978Z,81.10
2019-01-31T20:16:05.100Z,81.48
2019-01-31T20:18:37.219Z,81.74
2019-01-31T20:21:09.352Z,81.35
2019-01-31T20:23:44.236Z,81.29
2019-01-31T20:26:19.094Z,81.17
2019-01-31T20:28:53.493Z,81.00
2019-01-31T20:31:26.293Z,80.71
2019-01-31T20:33:58.456Z,80.54
2019-01-31T20:36:30.956Z,80.47
2019-01-31T20:39:04.191Z,80.49
2019-01-31T20:41:53.555Z,80.50
2019-01-31T20:44:16.095Z,80.37
2019-01-31T20:46:48.604Z,80.27
2019-01-31T20:49:20.728Z,80.38
2019-01-31T20:51:52.740Z,80.46
2019-01-31T20:54:24.739Z,80.45
2019-01-31T20:56:58.247Z,80.32
2019-01-31T20:59:30.150Z,80.25
2019-01-31T21:02:02.180Z,80.15
2019-01-31T21:04:37.224Z,80.00
2019-01-31T21:07:08.107Z,79.95
2019-01-31T21:09:39.975Z,80.04
2019-01-31T21:12:11.938Z,80.20
2019-01-31T21:14:43.784Z,80.54
2019-01-31T21:17:15.677Z,80.38
2019-01-31T21:19:47.627Z,80.31
2019-01-31T21:22:19.467Z,80.03
2019-01-31T21:24:51.427Z,79.83
2019-01-31T21:27:23.268Z,79.38
2019-01-31T21:29:55.121Z,78.98
2019-01-31T21:32:27.071Z,78.80
2019-01-31T21:34:58.987Z,78.90
2019-01-31T21:37:30.866Z,79.00
2019-01-31T21:40:02.937Z,79.47
2019-01-31T21:42:35.355Z,79.54
2019-01-31T21:45:09.096Z,79.76
2019-01-31T21:47:41.941Z,79.58
2019-01-31T21:50:17.857Z,79.22
2019-01-31T21:52:49.859Z,79.19
2019-01-31T21:55:21.713Z,79.01
2019-01-31T21:57:53.655Z,78.91
2019-01-31T22:00:33.774Z,78.96
2019-01-31T22:03:06.823Z,79.13
2019-01-31T22:05:40.091Z,79.25
2019-01-31T22:08:11.900Z,79.57
2019-01-31T22:10:45.868Z,79.96
2019-01-31T22:13:17.835Z,80.38
2019-01-31T22:15:49.885Z,80.95
2019-01-31T22:18:21.859Z,81.34
2019-01-31T22:20:53.807Z,81.83
2019-01-31T22:23:26.139Z,82.28
2019-01-31T22:25:58.087Z,82.67
2019-01-31T22:28:31.107Z,83.09
2019-01-31T22:31:02.987Z,83.40
2019-01-31T22:33:37.651Z,83.25
2019-01-31T22:36:09.717Z,83.68
2019-01-31T22:38:41.835Z,84.24
2019-01-31T22:41:13.966Z,84.70
2019-01-31T22:43:45.975Z,85.27
2019-01-31T22:46:21.097Z,85.30
2019-01-31T22:48:51.579Z,85.49
2019-01-31T22:51:23.710Z,85.90
2019-01-31T22:53:55.782Z,86.02
2019-01-31T22:56:27.723Z,86.55
2019-01-31T22:58:59.737Z,86.81
2019-01-31T23:01:42.358Z,86.52
2019-01-31T23:04:15.975Z,86.67
2019-01-31T23:06:47.987Z,87.29
2019-01-31T23:09:20.059Z,86.93
2019-01-31T23:11:51.943Z,86.83
2019-01-31T23:14:23.930Z,87.07
2019-01-31T23:16:55.788Z,87.43
2019-01-31T23:19:27.630Z,87.64
2019-01-31T23:22:03.431Z,87.96
2019-01-31T23:24:35.319Z,88.27
2019-01-31T23:27:07.346Z,88.08
2019-01-31T23:29:40.626Z,88.24
2019-01-31T23:32:12.582Z,88.74
2019-01-31T23:34:44.400Z,89.20
2019-01-31T23:37:18.428Z,88.96
2019-01-31T23:39:50.343Z,88.87
2019-01-31T23:42:22.348Z,89.33
2019-01-31T23:44:54.214Z,89.72
2019-01-31T23:47:26.026Z,89.40
2019-01-31T23:50:00.917Z,89.46
2019-01-31T23:52:34.364Z,89.50
2019-01-31T23:55:08.282Z,89.82
2019-01-31T23:57:42.428Z,89.70
